createdAt,value
2023-01-29T00:01:44.244Z,150264.47
2023-01-29T00:04:30.143Z,150258.06
2023-01-29T00:07:06.459Z,150261.94
2023-01-29T00:09:44.574Z,150254.22
2023-01-29T00:12:42.761Z,150270.88
2023-01-29T00:15:27.714Z,150255.47
2023-01-29T00:18:00.131Z,150264.47
2023-01-29T00:20:38.505Z,150252.94
2023-01-29T00:23:32.867Z,150250.34
2023-01-29T00:26:15.635Z,150240.09
2023-01-29T00:29:00.044Z,150249.09
2023-01-29T00:31:46.014Z,150245.22
2023-01-29T00:34:29.631Z,150240.09
2023-01-29T00:37:22.157Z,150240.09
2023-01-29T00:43:10.076Z,150245.22
2023-01-29T00:45:44.295Z,150259.34
2023-01-29T00:48:31.470Z,150255.47
2023-01-29T00:51:13.955Z,150233.69
2023-01-29T00:53:54.648Z,150210.56
2023-01-29T00:56:32.411Z,150206.69
2023-01-29T00:59:03.844Z,150184.91
2023-01-29T01:01:46.519Z,150177.19
2023-01-29T01:04:18.313Z,150178.50
2023-01-29T01:06:48.426Z,150173.38
2023-01-29T01:09:34.486Z,150175.91
2023-01-29T01:12:14.397Z,150151.50
2023-01-29T01:15:10.886Z,150169.50
2023-01-29T01:18:04.752Z,150168.22
2023-01-29T01:20:58.831Z,150152.78
2023-01-29T01:23:51.651Z,150170.78
2023-01-29T01:26:43.309Z,150177.19
2023-01-29T01:29:26.253Z,150170.78
2023-01-29T01:32:03.785Z,150193.88
2023-01-29T01:34:50.947Z,150191.31
2023-01-29T01:37:47.749Z,150182.31
2023-01-29T01:40:53.536Z,150183.63
2023-01-29T01:43:42.598Z,150191.31
2023-01-29T01:46:20.385Z,150204.16
2023-01-29T01:48:58.458Z,150201.56
2023-01-29T01:51:41.396Z,150214.41
2023-01-29T01:54:21.777Z,150205.44
2023-01-29T01:57:06.313Z,150220.81
2023-01-29T01:59:45.381Z,150211.81
2023-01-29T02:02:31.696Z,150228.56
2023-01-29T02:05:16.461Z,150213.16
2023-01-29T02:08:06.782Z,150214.41
2023-01-29T02:10:45.368Z,150225.97
2023-01-29T02:13:18.818Z,150215.69
2023-01-29T02:15:49.961Z,150218.28
2023-01-29T02:18:27.372Z,150222.13
2023-01-29T02:21:25.686Z,150223.41
2023-01-29T02:24:42.556Z,150214.41
2023-01-29T02:27:32.332Z,150218.28
2023-01-29T02:30:20.792Z,150216.97
2023-01-29T02:33:07.665Z,150220.81
2023-01-29T02:36:04.625Z,150216.97
2023-01-29T02:39:16.362Z,150214.41
2023-01-29T02:42:06.107Z,150206.69
2023-01-29T02:44:41.654Z,150210.56
2023-01-29T02:47:26.638Z,150206.69
2023-01-29T02:50:20.780Z,150214.41
2023-01-29T02:53:20.154Z,150210.56
2023-01-29T02:56:16.621Z,150199.03
2023-01-29T02:59:12.089Z,150210.56
2023-01-29T03:01:58.283Z,150211.81
2023-01-29T03:04:56.170Z,150214.41
2023-01-29T03:07:53.255Z,150213.16
2023-01-29T03:10:44.457Z,150209.28
2023-01-29T03:13:51.027Z,150193.88
2023-01-29T03:16:39.399Z,150218.28
2023-01-29T03:19:27.466Z,150214.41
2023-01-29T03:22:24.404Z,150215.69
2023-01-29T03:25:31.992Z,150211.81
2023-01-29T03:28:46.876Z,150210.56
2023-01-29T03:31:44.073Z,150206.69
2023-01-29T03:41:00.527Z,150224.69
2023-01-29T03:44:20.530Z,150210.56
2023-01-29T03:47:14.191Z,150205.44
2023-01-29T03:50:08.126Z,150199.03
2023-01-29T03:53:08.992Z,150196.44
2023-01-29T03:56:04.319Z,150186.16
2023-01-29T03:59:18.220Z,150199.03
2023-01-29T04:02:35.068Z,150181.03
2023-01-29T04:05:30.279Z,150186.16
2023-01-29T04:08:41.612Z,150190.03
2023-01-29T04:11:34.076Z,150173.38
2023-01-29T04:14:27.645Z,150178.50
2023-01-29T04:17:21.085Z,150181.03
2023-01-29T04:20:38.428Z,150182.31
2023-01-29T04:23:34.743Z,150178.50
2023-01-29T04:26:32.041Z,150179.75
2023-01-29T04:29:42.587Z,150181.03
2023-01-29T04:32:51.909Z,150188.75
2023-01-29T04:39:30.637Z,150178.50
2023-01-29T04:42:39.132Z,150173.38
2023-01-29T04:45:28.755Z,150172.03
2023-01-29T04:48:25.594Z,150188.75
2023-01-29T04:51:26.129Z,150192.63
2023-01-29T04:54:21.761Z,150190.03
2023-01-29T05:00:33.968Z,150181.03
2023-01-29T05:03:29.011Z,150195.16
2023-01-29T05:06:35.372Z,150187.44
2023-01-29T05:09:59.818Z,150196.44
2023-01-29T05:12:53.882Z,150193.88
2023-01-29T05:16:00.238Z,150193.88
2023-01-29T05:19:03.419Z,150192.63
2023-01-29T05:21:55.111Z,150195.16
2023-01-29T05:28:08.207Z,150199.03
2023-01-29T05:31:11.696Z,150184.91
2023-01-29T05:36:57.874Z,150196.44
2023-01-29T05:39:44.768Z,150183.63
2023-01-29T05:42:16.816Z,150187.44
2023-01-29T05:44:47.146Z,150193.88
2023-01-29T05:47:17.481Z,150211.81
2023-01-29T05:49:47.614Z,150211.81
2023-01-29T05:52:17.775Z,150201.56
2023-01-29T05:54:51.894Z,150216.97
2023-01-29T05:57:22.312Z,150202.88
2023-01-29T05:59:52.419Z,150215.69
2023-01-29T06:02:22.579Z,150206.69
2023-01-29T06:04:54.447Z,150209.28
2023-01-29T06:07:24.660Z,150210.56
2023-01-29T06:09:57.454Z,150195.16
2023-01-29T06:12:27.609Z,150202.88
2023-01-29T06:14:57.759Z,150199.03
2023-01-29T06:17:27.941Z,150196.44
2023-01-29T06:20:06.745Z,150208.00
2023-01-29T06:22:37.238Z,150224.69
2023-01-29T06:25:12.320Z,150215.69
2023-01-29T06:27:42.919Z,150215.69
2023-01-29T06:30:14.741Z,150206.69
2023-01-29T06:32:45.142Z,150204.16
2023-01-29T06:35:21.133Z,150206.69
2023-01-29T06:37:51.264Z,150213.16
2023-01-29T06:40:24.127Z,150214.41
2023-01-29T06:42:55.593Z,150211.81
2023-01-29T06:45:33.168Z,150218.28
2023-01-29T06:48:04.795Z,150190.03
2023-01-29T06:50:34.925Z,150206.69
2023-01-29T06:53:05.056Z,150209.28
2023-01-29T06:55:40.598Z,150211.81
2023-01-29T06:58:16.383Z,150216.97
2023-01-29T07:00:48.487Z,150218.28
2023-01-29T07:03:19.555Z,150214.41
2023-01-29T07:05:59.824Z,150215.69
2023-01-29T07:08:30.221Z,150215.69
2023-01-29T07:11:05.876Z,150233.69
2023-01-29T07:13:36.214Z,150227.28
2023-01-29T07:16:12.713Z,150225.97
2023-01-29T07:18:42.862Z,150229.81
2023-01-29T07:21:13.526Z,150225.97
2023-01-29T07:23:45.219Z,150245.22
2023-01-29T07:26:18.201Z,150223.41
2023-01-29T07:28:48.333Z,150204.16
2023-01-29T07:31:18.875Z,150216.97
2023-01-29T07:33:54.767Z,150225.97
2023-01-29T07:36:35.926Z,150261.94
2023-01-29T07:39:24.012Z,150242.69
2023-01-29T07:42:04.145Z,150224.69
2023-01-29T07:44:35.084Z,150213.16
2023-01-29T07:47:09.671Z,150216.97
2023-01-29T07:49:47.290Z,150242.69
2023-01-29T07:52:22.548Z,150247.81
2023-01-29T07:54:53.751Z,150246.53
2023-01-29T07:57:28.097Z,150269.63
2023-01-29T07:59:59.225Z,150237.53
2023-01-29T08:02:32.565Z,150246.53
2023-01-29T08:05:05.232Z,150260.63
2023-01-29T08:07:35.449Z,150272.22
2023-01-29T08:10:08.278Z,150295.28
2023-01-29T08:12:41.155Z,150269.63
2023-01-29T08:15:15.106Z,150285.00
2023-01-29T08:17:57.497Z,150305.59
2023-01-29T08:20:32.205Z,150300.47
2023-01-29T08:23:04.678Z,150296.59
2023-01-29T08:25:48.744Z,150296.59
2023-01-29T08:28:22.013Z,150299.16
2023-01-29T08:30:58.708Z,150256.81
2023-01-29T08:33:38.628Z,150291.47
2023-01-29T08:36:13.373Z,150294.00
2023-01-29T08:38:43.545Z,150308.13
2023-01-29T08:41:13.858Z,150332.53
2023-01-29T08:43:49.675Z,150353.09
2023-01-29T08:46:19.922Z,150341.53
2023-01-29T08:48:50.094Z,150309.41
2023-01-29T08:51:22.225Z,150291.47
2023-01-29T08:53:52.402Z,150300.47
2023-01-29T08:56:22.457Z,150300.47
2023-01-29T08:58:55.351Z,150347.94
2023-01-29T09:01:25.611Z,150341.53
2023-01-29T09:03:55.990Z,150321.00
2023-01-29T09:06:37.229Z,150342.81
2023-01-29T09:09:13.665Z,150315.88
2023-01-29T09:11:46.919Z,150287.59
2023-01-29T09:14:21.617Z,150309.41
2023-01-29T09:16:57.962Z,150304.28
2023-01-29T09:19:28.149Z,150305.59
2023-01-29T09:21:58.302Z,150313.28
2023-01-29T09:24:28.522Z,150326.13
2023-01-29T09:26:58.826Z,150322.28
2023-01-29T09:29:32.656Z,150331.28
2023-01-29T09:32:05.494Z,150297.88
2023-01-29T09:34:46.004Z,150335.13
2023-01-29T09:37:17.795Z,150350.53
2023-01-29T09:39:49.835Z,150342.81
2023-01-29T09:42:28.393Z,150374.94
2023-01-29T09:45:08.870Z,150395.50
2023-01-29T09:47:40.145Z,150354.41
2023-01-29T09:50:19.988Z,150328.69
2023-01-29T09:53:04.781Z,150362.09
2023-01-29T09:55:45.286Z,150342.81
2023-01-29T09:58:29.899Z,150324.81
2023-01-29T10:15:50.703Z,150308.13
2023-01-29T10:18:47.947Z,150330.00
2023-01-29T10:21:31.715Z,150296.59
2023-01-29T10:24:10.194Z,150326.13
2023-01-29T10:26:43.829Z,150294.00
2023-01-29T10:29:22.242Z,150309.41
2023-01-29T10:31:58.050Z,150286.34
2023-01-29T10:34:34.918Z,150251.66
2023-01-29T10:37:16.365Z,150240.09
2023-01-29T10:39:48.478Z,150246.53
2023-01-29T10:42:31.770Z,150265.75
2023-01-29T10:45:24.430Z,150279.88
2023-01-29T10:48:20.576Z,150242.69
2023-01-29T10:50:55.770Z,150268.34
2023-01-29T10:53:35.224Z,150277.34
2023-01-29T10:56:23.211Z,150270.88
2023-01-29T10:59:02.338Z,150299.16
2023-01-29T11:01:34.908Z,150263.22
2023-01-29T11:04:09.773Z,150300.47
2023-01-29T11:06:40.975Z,150314.56
2023-01-29T11:09:25.023Z,150351.81
2023-01-29T11:12:00.964Z,150331.28
2023-01-29T11:14:42.677Z,150287.59
2023-01-29T11:17:20.071Z,150295.28
2023-01-29T11:19:55.784Z,150324.81
2023-01-29T11:22:32.285Z,150330.00
2023-01-29T11:25:21.382Z,150324.81
2023-01-29T11:27:55.324Z,150314.56
2023-01-29T11:30:32.397Z,150299.16
2023-01-29T11:33:11.103Z,150300.47
2023-01-29T11:35:43.455Z,150290.16
2023-01-29T11:38:25.971Z,150288.88
2023-01-29T11:40:57.215Z,150300.47
2023-01-29T11:43:37.956Z,150313.28
2023-01-29T11:46:18.405Z,150327.41
2023-01-29T11:48:59.399Z,150363.34
2023-01-29T11:51:43.972Z,150318.41
2023-01-29T11:54:20.340Z,150314.56
2023-01-29T11:56:51.941Z,150340.28
2023-01-29T11:59:38.336Z,150344.09
2023-01-29T12:02:26.807Z,150344.09
2023-01-29T12:05:00.145Z,150338.94
2023-01-29T12:07:32.770Z,150344.09
2023-01-29T12:10:03.906Z,150408.31
2023-01-29T12:12:39.429Z,150355.69
2023-01-29T12:15:25.382Z,150407.03
2023-01-29T12:18:04.223Z,150437.91
2023-01-29T12:20:42.527Z,150365.94
2023-01-29T12:23:31.031Z,150387.75
2023-01-29T12:26:07.553Z,150481.53
2023-01-29T12:28:51.958Z,150459.72
2023-01-29T12:31:39.663Z,150394.22
2023-01-29T12:34:20.208Z,150374.94
2023-01-29T12:36:58.223Z,150349.22
2023-01-29T12:39:29.087Z,150336.41
2023-01-29T12:42:04.659Z,150363.34
2023-01-29T12:44:45.437Z,150346.69
2023-01-29T12:47:22.586Z,150327.41
2023-01-29T12:50:00.144Z,150269.63
2023-01-29T12:52:40.950Z,150286.34
2023-01-29T12:55:15.624Z,150243.94
2023-01-29T12:57:50.202Z,150249.09
2023-01-29T13:00:27.649Z,150305.59
2023-01-29T13:03:03.562Z,150314.56
2023-01-29T13:05:44.449Z,150342.81
2023-01-29T13:08:21.874Z,150340.28
2023-01-29T13:10:56.809Z,150317.13
2023-01-29T13:13:33.794Z,150340.28
2023-01-29T13:16:06.824Z,150350.53
2023-01-29T13:18:44.438Z,150349.22
2023-01-29T13:21:23.000Z,150398.03
2023-01-29T13:23:58.971Z,150392.88
2023-01-29T13:26:32.946Z,150378.75
2023-01-29T13:29:05.736Z,150412.16
2023-01-29T13:31:46.409Z,150407.03
2023-01-29T13:34:20.016Z,150359.53
2023-01-29T13:36:56.122Z,150367.22
2023-01-29T13:39:33.060Z,150360.81
2023-01-29T13:42:05.777Z,150381.34
2023-01-29T13:44:41.546Z,150386.50
2023-01-29T13:47:14.485Z,150309.41
2023-01-29T13:49:48.604Z,150364.69
2023-01-29T13:52:29.075Z,150363.34
2023-01-29T13:55:02.079Z,150412.16
2023-01-29T13:57:55.381Z,150493.13
2023-01-29T14:00:59.440Z,150494.41
2023-01-29T14:04:06.787Z,150543.22
2023-01-29T14:06:51.833Z,150522.69
2023-01-29T14:09:57.899Z,150453.31
2023-01-29T14:12:52.640Z,150360.81
2023-01-29T14:15:31.180Z,150345.41
2023-01-29T14:18:06.201Z,150341.53
2023-01-29T14:20:48.557Z,150356.94
2023-01-29T14:23:27.182Z,150378.75
2023-01-29T14:25:57.813Z,150321.00
2023-01-29T14:28:33.770Z,150319.69
2023-01-29T14:31:04.495Z,150288.88
2023-01-29T14:33:42.482Z,150273.47
2023-01-29T14:36:16.483Z,150294.00
2023-01-29T14:38:53.456Z,150324.81
2023-01-29T14:41:29.158Z,150342.81
2023-01-29T14:44:32.026Z,150318.41
2023-01-29T14:47:05.001Z,150305.59
2023-01-29T14:49:54.324Z,150279.88
2023-01-29T14:52:29.481Z,150264.47
2023-01-29T14:55:03.579Z,150223.41
2023-01-29T14:57:34.747Z,150211.81
2023-01-29T15:00:11.974Z,150183.63
2023-01-29T15:02:47.585Z,150163.09
2023-01-29T15:05:22.686Z,150134.84
2023-01-29T15:07:58.639Z,150134.84
2023-01-29T15:10:39.028Z,150097.63
2023-01-29T15:13:21.436Z,150093.75
2023-01-29T15:15:57.527Z,150074.50
2023-01-29T15:18:39.953Z,150078.34
2023-01-29T15:21:15.628Z,150073.22
2023-01-29T15:23:47.977Z,150048.84
2023-01-29T15:26:24.774Z,150055.31
2023-01-29T15:29:04.238Z,150028.34
2023-01-29T15:31:35.896Z,150014.22
2023-01-29T15:34:10.642Z,150010.34
2023-01-29T15:36:41.051Z,149992.44
2023-01-29T15:39:19.462Z,150001.41
2023-01-29T15:41:50.963Z,150007.81
2023-01-29T15:44:23.420Z,149970.59
2023-01-29T15:46:56.692Z,149983.44
2023-01-29T15:49:37.058Z,149969.31
2023-01-29T15:52:10.912Z,149941.09
2023-01-29T15:54:41.807Z,149957.81
2023-01-29T15:57:22.872Z,149957.81
2023-01-29T15:59:55.358Z,149944.94
2023-01-29T16:02:39.365Z,149932.09
2023-01-29T16:05:15.300Z,149932.09
2023-01-29T16:07:46.391Z,149942.38
2023-01-29T16:10:22.436Z,149939.81
2023-01-29T16:12:54.248Z,149934.69
2023-01-29T16:15:34.376Z,149947.53
2023-01-29T16:18:07.469Z,149939.81
2023-01-29T16:20:46.679Z,149947.53
2023-01-29T16:23:21.771Z,149961.59
2023-01-29T16:25:52.957Z,149961.59
2023-01-29T16:28:23.336Z,149975.72
2023-01-29T16:31:02.882Z,149970.59
2023-01-29T16:33:38.511Z,149933.44
2023-01-29T16:36:19.968Z,149943.69
2023-01-29T16:38:54.364Z,149916.72
2023-01-29T16:41:34.005Z,149896.22
2023-01-29T16:44:06.867Z,149903.94
2023-01-29T16:46:39.406Z,149906.47
2023-01-29T16:49:44.409Z,149897.47
2023-01-29T16:52:27.377Z,149920.59
2023-01-29T16:55:03.600Z,149925.72
2023-01-29T16:57:37.067Z,149930.84
2023-01-29T17:00:11.453Z,149928.31
2023-01-29T17:02:42.996Z,149924.44
2023-01-29T17:05:25.426Z,149956.47
2023-01-29T17:08:00.373Z,149955.22
2023-01-29T17:10:32.723Z,149985.97
2023-01-29T17:13:07.010Z,149970.59
2023-01-29T17:15:46.296Z,149964.19
2023-01-29T17:18:21.605Z,149961.59
2023-01-29T17:20:53.152Z,149962.94
2023-01-29T17:23:26.169Z,149980.84
2023-01-29T17:25:56.822Z,149975.72
2023-01-29T17:28:27.033Z,149964.19
2023-01-29T17:31:06.166Z,149983.44
2023-01-29T17:33:38.546Z,149988.56
2023-01-29T17:36:12.808Z,149992.44
2023-01-29T17:38:45.873Z,150005.22
2023-01-29T17:41:22.758Z,150011.69
2023-01-29T17:43:52.866Z,150007.81
2023-01-29T17:46:24.516Z,149996.25
2023-01-29T17:48:54.952Z,149989.84
2023-01-29T17:51:25.165Z,149989.84
2023-01-29T17:53:57.911Z,150000.09
2023-01-29T17:56:30.671Z,150003.94
2023-01-29T17:59:01.081Z,150015.47
2023-01-29T18:01:31.313Z,150018.06
2023-01-29T18:04:01.584Z,150020.63
2023-01-29T18:06:32.824Z,150019.34
2023-01-29T18:09:06.478Z,150005.22
2023-01-29T18:11:37.346Z,150020.63
2023-01-29T18:14:13.910Z,150011.69
2023-01-29T18:16:46.749Z,150018.06
2023-01-29T18:19:20.149Z,150010.34
2023-01-29T18:21:50.331Z,149991.09
2023-01-29T18:24:23.728Z,149985.97
2023-01-29T18:26:54.064Z,149993.69
2023-01-29T18:29:29.574Z,149980.84
2023-01-29T18:31:59.789Z,149989.84
2023-01-29T18:34:29.950Z,149969.31
2023-01-29T18:37:00.442Z,149968.06
2023-01-29T18:39:33.175Z,149982.16
2023-01-29T18:42:03.255Z,149978.31
2023-01-29T18:44:33.428Z,149950.09
2023-01-29T18:47:05.513Z,149953.94
2023-01-29T18:49:38.885Z,149956.47
2023-01-29T18:52:09.457Z,149926.97
2023-01-29T18:54:42.700Z,149926.97
2023-01-29T18:57:16.659Z,149915.47
2023-01-29T19:00:04.692Z,149909.06
2023-01-29T19:02:34.843Z,149920.59
2023-01-29T19:05:06.980Z,149928.31
2023-01-29T19:07:37.142Z,149934.69
2023-01-29T19:10:14.186Z,149939.81
2023-01-29T19:12:44.299Z,149951.34
2023-01-29T19:15:21.618Z,149962.94
2023-01-29T19:17:52.091Z,149969.31
2023-01-29T19:20:22.774Z,149966.75
2023-01-29T19:22:54.004Z,149975.72
2023-01-29T19:25:26.951Z,149985.97
2023-01-29T19:27:59.728Z,149991.09
2023-01-29T19:30:35.959Z,149991.09
2023-01-29T19:33:10.771Z,150001.41
2023-01-29T19:35:54.372Z,150014.22
2023-01-29T19:38:26.140Z,150000.09
2023-01-29T19:41:02.660Z,150001.41
2023-01-29T19:43:33.513Z,150020.63
2023-01-29T19:46:04.773Z,150003.94
2023-01-29T19:48:34.888Z,150025.78
2023-01-29T19:51:08.543Z,150012.94
2023-01-29T19:53:39.388Z,150007.81
2023-01-29T19:56:17.296Z,150009.09
2023-01-29T19:58:49.800Z,150014.22
2023-01-29T20:01:24.828Z,149998.81
2023-01-29T20:03:59.913Z,150011.69
2023-01-29T20:06:31.932Z,150010.34
2023-01-29T20:09:06.193Z,149993.69
2023-01-29T20:11:39.189Z,149985.97
2023-01-29T20:14:11.119Z,149970.59
2023-01-29T20:16:41.413Z,149969.31
2023-01-29T20:19:14.050Z,149939.81
2023-01-29T20:21:45.673Z,149948.81
2023-01-29T20:24:16.589Z,149937.25
2023-01-29T20:26:50.419Z,149942.38
2023-01-29T20:29:20.919Z,149932.09
2023-01-29T20:31:51.068Z,149916.72
2023-01-29T20:34:21.247Z,149923.16
2023-01-29T20:36:51.307Z,149898.81
2023-01-29T20:39:21.591Z,149910.31
2023-01-29T20:41:55.361Z,149920.59
2023-01-29T20:44:25.205Z,149903.94
2023-01-29T20:46:55.284Z,149894.94
2023-01-29T20:49:25.424Z,149880.84
2023-01-29T20:51:58.186Z,149875.72
2023-01-29T20:54:30.128Z,149891.09
2023-01-29T20:57:03.248Z,149883.38
2023-01-29T20:59:33.330Z,149880.84
2023-01-29T21:02:03.564Z,149857.75
2023-01-29T21:04:34.184Z,149878.25
2023-01-29T21:07:04.330Z,149875.72
2023-01-29T21:09:34.436Z,149869.31
2023-01-29T21:12:08.746Z,149857.75
2023-01-29T21:14:39.055Z,149861.59
2023-01-29T21:17:09.326Z,149846.22
2023-01-29T21:19:39.440Z,149864.19
2023-01-29T21:22:09.567Z,149864.19
2023-01-29T21:24:39.731Z,149843.63
2023-01-29T21:27:13.577Z,149828.25
2023-01-29T21:29:43.335Z,149826.97
2023-01-29T21:32:13.404Z,149821.84
2023-01-29T21:34:44.168Z,149826.97
2023-01-29T21:37:14.335Z,149812.88
2023-01-29T21:39:47.868Z,149801.34
2023-01-29T21:42:32.925Z,149815.47
2023-01-29T21:45:03.025Z,149805.16
2023-01-29T21:47:33.187Z,149809.00
2023-01-29T21:50:03.276Z,149794.91
2023-01-29T21:52:33.414Z,149794.91
2023-01-29T21:55:03.512Z,149816.72
2023-01-29T21:57:36.531Z,149801.34
2023-01-29T22:00:07.647Z,149802.63
2023-01-29T22:02:37.920Z,149814.13
2023-01-29T22:05:18.772Z,149788.50
2023-01-29T22:07:50.523Z,149793.63
2023-01-29T22:10:21.901Z,149784.66
2023-01-29T22:12:54.816Z,149780.84
2023-01-29T22:15:25.495Z,149774.41
2023-01-29T22:17:55.741Z,149770.56
2023-01-29T22:20:30.350Z,149760.31
2023-01-29T22:23:01.757Z,149770.56
2023-01-29T22:25:32.321Z,149752.63
2023-01-29T22:28:05.203Z,149747.50
2023-01-29T22:30:35.887Z,149742.38
2023-01-29T22:33:06.179Z,149723.16
2023-01-29T22:35:36.456Z,149723.16
2023-01-29T22:38:07.923Z,149716.72
2023-01-29T22:40:37.995Z,149709.06
2023-01-29T22:43:10.685Z,149693.69
2023-01-29T22:45:42.550Z,149698.81
2023-01-29T22:48:12.722Z,149692.38
2023-01-29T22:50:54.008Z,149680.84
2023-01-29T22:53:24.135Z,149668.03
2023-01-29T22:55:57.487Z,149656.50
2023-01-29T22:58:30.232Z,149651.38
2023-01-29T23:01:00.572Z,149645.00
2023-01-29T23:03:30.807Z,149636.00
2023-01-29T23:06:01.070Z,149638.53
2023-01-29T23:08:31.336Z,149630.88
2023-01-29T23:11:14.488Z,149627.03
2023-01-29T23:13:49.987Z,149611.66
2023-01-29T23:16:21.356Z,149616.78
2023-01-29T23:18:54.281Z,149621.91
2023-01-29T23:21:27.339Z,149620.63
2023-01-29T23:23:58.490Z,149616.78
2023-01-29T23:26:41.717Z,149611.66
2023-01-29T23:29:14.821Z,149612.94
2023-01-29T23:31:45.006Z,149606.53
2023-01-29T23:34:15.315Z,149614.19
2023-01-29T23:36:48.837Z,149603.97
2023-01-29T23:39:18.882Z,149607.81
2023-01-29T23:41:48.984Z,149605.28
2023-01-29T23:44:21.831Z,149603.97
2023-01-29T23:46:51.959Z,149611.66
2023-01-29T23:49:22.288Z,149603.97
2023-01-29T23:51:52.809Z,149618.06
2023-01-29T23:54:22.962Z,149606.53
2023-01-29T23:56:53.376Z,149596.28
2023-01-29T23:59:26.096Z,149628.28
